createdAt,value
2022-10-19T00:00:31.597Z,32.28
2022-10-19T00:03:34.568Z,30.02
2022-10-19T00:06:37.553Z,27.95
2022-10-19T00:09:39.920Z,28.60
2022-10-19T00:12:42.229Z,27.65
2022-10-19T00:15:45.299Z,29.80
2022-10-19T00:18:47.598Z,27.35
2022-10-19T00:24:57.964Z,30.37
2022-10-19T00:28:00.541Z,32.40
2022-10-19T00:31:06.900Z,27.33
2022-10-19T00:34:09.218Z,28.80
2022-10-19T00:37:11.384Z,29.63
2022-10-19T00:40:13.836Z,29.20
2022-10-19T00:43:16.986Z,32.10
2022-10-19T00:46:19.133Z,28.88
2022-10-19T00:49:29.197Z,28.35
2022-10-19T00:52:31.795Z,31.35
2022-10-19T00:55:34.740Z,29.77
2022-10-19T00:58:36.983Z,28.17
2022-10-19T01:01:39.405Z,27.50
2022-10-19T01:04:44.802Z,30.30
2022-10-19T01:07:47.122Z,27.90
2022-10-19T01:10:49.318Z,28.13
2022-10-19T01:13:57.645Z,34.92
2022-10-19T01:16:59.830Z,29.65
2022-10-19T01:20:05.058Z,27.33
2022-10-19T01:23:45.858Z,27.55
2022-10-19T01:26:50.813Z,32.37
2022-10-19T01:29:59.065Z,32.30
2022-10-19T01:33:01.434Z,29.92
2022-10-19T01:36:18.800Z,29.27
2022-10-19T01:39:25.928Z,32.05
2022-10-19T01:42:40.922Z,25.67
2022-10-19T01:45:48.058Z,26.73
2022-10-19T01:49:02.427Z,28.92
2022-10-19T01:52:06.194Z,28.83
2022-10-19T01:55:09.828Z,23.67
2022-10-19T01:58:14.647Z,29.00
2022-10-19T02:01:18.830Z,28.13
2022-10-19T02:04:24.938Z,28.60
2022-10-19T02:07:27.708Z,30.83
2022-10-19T02:10:31.242Z,27.00
2022-10-19T02:13:33.508Z,29.30
2022-10-19T02:16:42.289Z,28.50
2022-10-19T02:19:44.736Z,31.00
2022-10-19T02:22:46.943Z,29.75
2022-10-19T02:25:49.229Z,27.08
2022-10-19T02:28:51.455Z,32.57
2022-10-19T02:31:53.709Z,33.05
2022-10-19T02:34:56.246Z,28.50
2022-10-19T02:37:59.987Z,31.40
2022-10-19T02:41:22.387Z,31.02
2022-10-19T02:44:24.786Z,28.73
2022-10-19T02:47:38.882Z,29.95
2022-10-19T02:50:44.540Z,30.08
2022-10-19T02:53:46.749Z,32.65
2022-10-19T02:56:48.906Z,32.05
2022-10-19T02:59:51.585Z,33.93
2022-10-19T03:02:53.967Z,35.60
2022-10-19T03:05:56.130Z,31.52
2022-10-19T03:08:58.265Z,33.22
2022-10-19T03:12:00.398Z,29.35
2022-10-19T03:15:02.542Z,30.33
2022-10-19T03:18:04.771Z,25.00
2022-10-19T03:21:12.058Z,31.13
2022-10-19T03:24:14.318Z,31.30
2022-10-19T03:27:16.792Z,35.70
2022-10-19T03:30:18.941Z,33.47
2022-10-19T03:33:21.197Z,35.03
2022-10-19T03:36:28.804Z,34.92
2022-10-19T03:39:31.240Z,31.92
2022-10-19T03:42:33.661Z,32.95
2022-10-19T03:45:35.843Z,32.23
2022-10-19T03:48:38.045Z,31.58
2022-10-19T03:51:40.281Z,30.38
2022-10-19T03:54:42.490Z,34.75
2022-10-19T03:57:44.651Z,30.10
2022-10-19T04:00:47.140Z,35.93
2022-10-19T04:04:15.785Z,33.90
2022-10-19T04:07:18.064Z,35.55
2022-10-19T04:10:20.309Z,35.58
2022-10-19T04:13:22.504Z,36.22
2022-10-19T04:16:26.248Z,31.63
2022-10-19T04:19:28.795Z,33.55
2022-10-19T04:22:31.046Z,30.77
2022-10-19T04:25:33.400Z,35.20
2022-10-19T04:28:35.591Z,33.78
2022-10-19T04:31:38.189Z,35.93
2022-10-19T04:34:40.419Z,35.17
2022-10-19T04:37:42.550Z,32.00
2022-10-19T04:40:44.683Z,34.40
2022-10-19T04:43:47.232Z,37.20
2022-10-19T04:46:49.444Z,39.40
2022-10-19T04:49:51.586Z,36.13
2022-10-19T04:52:53.794Z,37.05
2022-10-19T04:55:56.000Z,38.10
2022-10-19T04:58:58.766Z,42.97
2022-10-19T05:02:00.959Z,40.07
2022-10-19T05:05:03.171Z,36.35
2022-10-19T05:08:05.520Z,39.20
2022-10-19T05:11:09.485Z,37.10
2022-10-19T05:14:11.644Z,40.65
2022-10-19T05:17:13.889Z,39.60
2022-10-19T05:20:16.315Z,37.38
2022-10-19T05:23:19.479Z,42.08
2022-10-19T05:26:24.188Z,37.33
2022-10-19T05:29:28.372Z,39.58
2022-10-19T05:32:32.588Z,36.73
2022-10-19T05:35:35.191Z,35.83
2022-10-19T05:38:39.402Z,36.60
2022-10-19T05:41:47.798Z,33.15
2022-10-19T05:44:50.890Z,32.10
2022-10-19T05:47:57.310Z,37.60
2022-10-19T05:51:05.402Z,40.88
2022-10-19T05:54:08.608Z,37.22
2022-10-19T05:57:11.420Z,39.20
2022-10-19T06:00:30.136Z,35.72
2022-10-19T06:04:00.091Z,30.33
2022-10-19T06:07:34.877Z,35.85
2022-10-19T06:10:40.647Z,37.78
2022-10-19T06:13:44.868Z,35.78
2022-10-19T06:16:48.558Z,40.35
2022-10-19T06:19:51.572Z,46.67
2022-10-19T06:22:54.989Z,37.08
2022-10-19T06:25:59.959Z,35.03
2022-10-19T06:29:03.730Z,33.83
2022-10-19T06:32:11.169Z,34.83
2022-10-19T06:35:14.595Z,33.77
2022-10-19T06:38:17.788Z,34.38
2022-10-19T06:41:25.675Z,33.38
2022-10-19T06:44:28.139Z,28.52
2022-10-19T06:47:33.288Z,31.85
2022-10-19T06:50:40.306Z,32.30
2022-10-19T06:53:47.235Z,30.55
2022-10-19T06:59:57.248Z,26.35
2022-10-19T07:02:59.974Z,22.50
2022-10-19T07:06:07.385Z,23.47
2022-10-19T07:09:10.775Z,22.60
2022-10-19T07:12:13.178Z,22.52
2022-10-19T07:15:16.112Z,19.90
2022-10-19T07:18:21.104Z,19.70
2022-10-19T07:21:24.192Z,20.53
2022-10-19T07:24:27.527Z,17.20
2022-10-19T07:27:34.023Z,12.55
2022-10-19T07:30:40.474Z,13.45
2022-10-19T07:33:45.264Z,12.80
2022-10-19T07:36:48.264Z,14.27
2022-10-19T07:39:50.741Z,11.48
2022-10-19T07:42:53.565Z,11.35
2022-10-19T07:45:59.951Z,11.07
2022-10-19T07:49:02.183Z,20.77
2022-10-19T07:52:04.681Z,10.37
2022-10-19T07:55:09.364Z,13.65
2022-10-19T07:58:11.871Z,13.38
2022-10-19T08:01:18.896Z,12.85
2022-10-19T08:07:43.462Z,10.30
2022-10-19T08:10:45.777Z,12.38
2022-10-19T08:13:48.496Z,10.60
2022-10-19T08:16:51.391Z,10.63
2022-10-19T08:19:54.830Z,12.32
2022-10-19T08:23:05.155Z,10.73
2022-10-19T08:26:07.768Z,10.75
2022-10-19T08:29:15.880Z,11.45
2022-10-19T08:32:20.490Z,11.73
2022-10-19T08:35:22.791Z,10.10
2022-10-19T08:38:28.140Z,9.63
2022-10-19T08:41:33.792Z,12.10
2022-10-19T08:44:39.304Z,9.57
2022-10-19T08:47:45.007Z,10.95
2022-10-19T08:50:48.713Z,9.15
2022-10-19T08:58:32.433Z,10.25
2022-10-19T09:01:54.861Z,9.13
2022-10-19T09:05:00.861Z,9.18
2022-10-19T09:08:03.592Z,9.93
2022-10-19T09:11:07.321Z,13.43
2022-10-19T09:14:18.505Z,11.45
2022-10-19T09:17:20.709Z,12.63
2022-10-19T09:20:25.659Z,9.60
2022-10-19T09:23:30.882Z,9.05
2022-10-19T09:26:36.079Z,8.27
2022-10-19T09:29:38.387Z,10.85
2022-10-19T09:32:41.281Z,8.13
2022-10-19T09:35:45.479Z,8.27
2022-10-19T09:38:55.942Z,9.07
2022-10-19T09:42:00.615Z,8.30
2022-10-19T09:45:17.481Z,8.07
2022-10-19T09:48:53.080Z,9.38
2022-10-19T09:51:55.640Z,8.07
2022-10-19T09:55:21.449Z,11.73
2022-10-19T09:58:29.172Z,10.23
2022-10-19T10:02:25.969Z,7.78
2022-10-19T10:05:33.853Z,8.02
2022-10-19T10:08:39.623Z,7.90
2022-10-19T10:11:43.805Z,8.98
2022-10-19T10:14:46.134Z,10.53
2022-10-19T10:17:49.441Z,10.32
2022-10-19T10:21:00.001Z,7.30
2022-10-19T10:24:21.266Z,7.80
2022-10-19T10:27:29.650Z,7.60
2022-10-19T10:30:34.398Z,7.20
2022-10-19T10:33:45.138Z,8.85
2022-10-19T10:36:52.146Z,9.77
2022-10-19T10:39:59.036Z,6.78
2022-10-19T10:43:09.331Z,7.28
2022-10-19T10:46:17.482Z,8.40
2022-10-19T10:49:27.654Z,5.90
2022-10-19T10:52:40.351Z,7.00
2022-10-19T10:56:03.329Z,5.45
2022-10-19T10:59:14.705Z,6.25
2022-10-19T11:02:29.391Z,8.77
2022-10-19T11:05:34.532Z,6.05
2022-10-19T11:08:51.459Z,6.45
2022-10-19T11:11:56.136Z,5.30
2022-10-19T11:15:06.155Z,5.43
2022-10-19T11:18:09.592Z,5.50
2022-10-19T11:21:15.662Z,4.85
2022-10-19T11:24:36.727Z,3.45
2022-10-19T11:27:47.745Z,2.25
2022-10-19T11:30:56.736Z,2.60
2022-10-19T11:34:00.442Z,3.17
2022-10-19T11:37:49.446Z,2.13
2022-10-19T11:47:10.345Z,3.65
2022-10-19T11:50:31.076Z,3.63
2022-10-19T11:53:44.184Z,2.83
2022-10-19T11:57:02.207Z,3.58
2022-10-19T12:00:15.069Z,2.85
2022-10-19T12:03:43.973Z,3.08
2022-10-19T12:06:57.201Z,3.97
2022-10-19T12:10:07.057Z,4.60
2022-10-19T12:13:11.847Z,3.38
2022-10-19T12:16:14.896Z,2.80
2022-10-19T12:19:29.132Z,4.57
2022-10-19T12:22:31.729Z,2.40
2022-10-19T12:25:38.699Z,2.43
2022-10-19T12:28:44.671Z,3.50
2022-10-19T12:31:48.035Z,3.97
2022-10-19T12:34:50.281Z,3.20
2022-10-19T12:37:58.729Z,8.60
2022-10-19T12:41:06.616Z,2.83
2022-10-19T12:44:25.554Z,3.63
2022-10-19T12:47:27.793Z,3.35
2022-10-19T12:50:48.414Z,3.80
2022-10-19T12:53:50.991Z,2.58
2022-10-19T12:56:54.348Z,2.40
2022-10-19T13:00:06.926Z,3.25
2022-10-19T13:03:23.946Z,3.20
2022-10-19T13:06:28.421Z,3.85
2022-10-19T13:09:37.559Z,2.80
2022-10-19T13:12:43.684Z,2.80
2022-10-19T13:15:50.397Z,2.80
2022-10-19T13:19:04.462Z,2.58
2022-10-19T13:22:33.188Z,3.25
2022-10-19T13:25:39.086Z,3.42
2022-10-19T13:28:52.441Z,3.50
2022-10-19T13:31:54.636Z,3.60
2022-10-19T13:35:16.882Z,3.08
2022-10-19T13:38:21.262Z,5.25
2022-10-19T13:41:26.147Z,2.83
2022-10-19T13:44:31.816Z,3.37
2022-10-19T13:47:39.773Z,3.08
2022-10-19T13:50:46.794Z,7.40
2022-10-19T13:54:04.319Z,3.13
2022-10-19T13:57:14.785Z,3.20
2022-10-19T14:00:17.673Z,2.87
2022-10-19T14:03:28.915Z,3.60
2022-10-19T14:06:43.288Z,2.80
2022-10-19T14:10:13.502Z,4.57
2022-10-19T14:13:15.938Z,2.83
2022-10-19T14:16:22.483Z,4.43
2022-10-19T14:19:27.648Z,4.05
2022-10-19T14:22:31.218Z,5.07
2022-10-19T14:25:33.453Z,4.22
2022-10-19T14:28:36.036Z,5.00
2022-10-19T14:31:38.452Z,4.83
2022-10-19T14:34:41.641Z,4.30
2022-10-19T14:37:44.255Z,3.95
2022-10-19T14:40:46.568Z,5.80
2022-10-19T14:43:48.741Z,6.43
2022-10-19T14:46:50.999Z,4.60
2022-10-19T14:49:53.640Z,5.95
2022-10-19T14:52:58.677Z,4.97
2022-10-19T14:56:12.362Z,5.15
2022-10-19T14:59:37.475Z,5.20
2022-10-19T15:02:45.476Z,4.73
2022-10-19T15:05:48.701Z,5.82
2022-10-19T15:11:59.872Z,4.60
2022-10-19T15:15:08.276Z,5.90
2022-10-19T15:18:30.197Z,6.00
2022-10-19T15:21:38.516Z,5.80
2022-10-19T15:24:53.741Z,5.75
2022-10-19T15:27:57.639Z,5.18
2022-10-19T15:31:07.228Z,4.68
2022-10-19T15:34:19.781Z,4.97
2022-10-19T15:37:23.118Z,6.78
2022-10-19T15:40:39.375Z,5.78
2022-10-19T15:43:46.117Z,5.35
2022-10-19T15:46:48.384Z,5.22
2022-10-19T15:50:01.134Z,4.80
2022-10-19T15:53:03.438Z,6.90
2022-10-19T15:56:06.186Z,8.15
2022-10-19T15:59:19.461Z,5.45
2022-10-19T16:02:22.233Z,7.18
2022-10-19T16:05:24.445Z,5.80
2022-10-19T16:08:27.178Z,5.07
2022-10-19T16:11:30.325Z,5.60
2022-10-19T16:14:35.772Z,6.45
2022-10-19T16:17:39.345Z,6.20
2022-10-19T16:20:42.770Z,6.37
2022-10-19T16:23:46.185Z,9.45
2022-10-19T16:26:48.510Z,7.65
2022-10-19T16:29:50.971Z,7.97
2022-10-19T16:32:53.664Z,8.93
2022-10-19T16:35:55.888Z,6.13
2022-10-19T16:38:59.738Z,6.20
2022-10-19T16:42:01.952Z,7.93
2022-10-19T16:45:04.364Z,6.35
2022-10-19T16:48:06.663Z,5.63
2022-10-19T16:51:10.389Z,6.57
2022-10-19T16:54:13.212Z,7.60
2022-10-19T16:57:15.508Z,6.18
2022-10-19T17:00:17.679Z,7.30
2022-10-19T17:03:19.918Z,6.25
2022-10-19T17:06:22.568Z,5.90
2022-10-19T17:09:42.225Z,9.88
2022-10-19T17:12:44.994Z,8.52
2022-10-19T17:15:47.323Z,6.15
2022-10-19T17:18:49.812Z,6.15
2022-10-19T17:21:54.397Z,5.70
2022-10-19T17:24:56.852Z,7.95
2022-10-19T17:27:59.234Z,6.97
2022-10-19T17:31:06.289Z,7.13
2022-10-19T17:34:08.800Z,6.80
2022-10-19T17:37:11.171Z,7.57
2022-10-19T17:40:14.536Z,8.38
2022-10-19T17:43:17.154Z,8.70
2022-10-19T17:46:20.928Z,7.78
2022-10-19T17:49:23.241Z,7.93
2022-10-19T17:52:25.866Z,7.30
2022-10-19T17:55:28.327Z,7.00
2022-10-19T17:58:32.583Z,7.30
2022-10-19T18:01:35.949Z,9.85
2022-10-19T18:04:38.695Z,6.80
2022-10-19T18:07:42.896Z,5.70
2022-10-19T18:10:45.323Z,6.95
2022-10-19T18:13:48.232Z,7.15
2022-10-19T18:16:52.069Z,8.40
2022-10-19T18:19:54.418Z,9.52
2022-10-19T18:22:56.768Z,8.13
2022-10-19T18:26:03.165Z,7.90
2022-10-19T18:29:10.542Z,6.95
2022-10-19T18:32:12.964Z,9.45
2022-10-19T18:35:15.398Z,7.00
2022-10-19T18:38:17.755Z,6.93
2022-10-19T18:41:20.122Z,8.88
2022-10-19T18:44:26.384Z,11.38
2022-10-19T18:47:30.174Z,9.75
2022-10-19T18:50:32.885Z,10.05
2022-10-19T18:53:35.283Z,10.40
2022-10-19T18:56:37.735Z,8.27
2022-10-19T18:59:40.110Z,7.97
2022-10-19T19:02:46.753Z,9.50
2022-10-19T19:05:49.520Z,13.25
2022-10-19T19:08:56.082Z,13.70
2022-10-19T19:11:59.238Z,8.85
2022-10-19T19:15:01.771Z,12.77
2022-10-19T19:18:04.567Z,11.48
2022-10-19T19:21:13.279Z,7.78
2022-10-19T19:24:20.286Z,7.43
2022-10-19T19:27:27.263Z,10.90
2022-10-19T19:30:33.209Z,8.80
2022-10-19T19:33:35.656Z,8.52
2022-10-19T19:36:42.845Z,8.23
2022-10-19T19:39:45.289Z,7.03
2022-10-19T19:42:47.602Z,7.15
2022-10-19T19:46:03.160Z,7.43
2022-10-19T19:49:08.865Z,7.03
2022-10-19T19:52:11.258Z,7.15
2022-10-19T19:55:13.662Z,8.37
2022-10-19T19:58:16.476Z,9.73
2022-10-19T20:01:19.584Z,8.68
2022-10-19T20:04:22.316Z,6.03
2022-10-19T20:07:26.917Z,7.95
2022-10-19T20:10:29.294Z,10.27
2022-10-19T20:13:31.964Z,7.35
2022-10-19T20:16:34.467Z,10.32
2022-10-19T20:19:37.073Z,8.52
2022-10-19T20:22:39.666Z,8.40
2022-10-19T20:25:42.026Z,12.03
2022-10-19T20:28:44.951Z,7.53
2022-10-19T20:31:47.570Z,8.15
2022-10-19T20:34:50.584Z,10.55
2022-10-19T20:37:53.369Z,10.25
2022-10-19T20:40:55.840Z,9.60
2022-10-19T20:43:58.107Z,9.60
2022-10-19T20:47:00.455Z,9.80
2022-10-19T20:53:06.064Z,7.88
2022-10-19T20:56:09.180Z,12.77
2022-10-19T20:59:12.925Z,10.30
2022-10-19T21:02:15.108Z,8.02
2022-10-19T21:05:17.399Z,10.32
2022-10-19T21:08:20.667Z,9.07
2022-10-19T21:11:24.051Z,9.23
2022-10-19T21:14:28.450Z,9.32
2022-10-19T21:20:38.221Z,10.50
2022-10-19T21:23:40.414Z,10.95
2022-10-19T21:26:42.872Z,10.67
2022-10-19T21:29:45.128Z,11.93
2022-10-19T21:32:47.673Z,12.93
2022-10-19T21:38:53.026Z,10.50
2022-10-19T21:41:55.978Z,11.67
2022-10-19T21:45:06.210Z,10.13
2022-10-19T21:48:14.127Z,11.38
2022-10-19T21:51:34.925Z,10.48
2022-10-19T21:54:37.162Z,12.40
2022-10-19T21:57:39.315Z,11.57
2022-10-19T22:00:41.748Z,9.75
2022-10-19T22:03:44.135Z,12.55
2022-10-19T22:06:46.898Z,13.77
2022-10-19T22:09:49.040Z,10.05
2022-10-19T22:12:51.291Z,10.87
2022-10-19T22:15:53.458Z,11.07
2022-10-19T22:18:55.637Z,9.90
2022-10-19T22:21:57.781Z,9.15
2022-10-19T22:24:59.972Z,10.18
2022-10-19T22:28:02.468Z,11.33
2022-10-19T22:31:04.625Z,9.20
2022-10-19T22:34:08.139Z,11.25
2022-10-19T22:37:10.346Z,16.05
2022-10-19T22:40:13.224Z,9.10
2022-10-19T22:43:15.406Z,10.60
2022-10-19T22:46:17.640Z,8.15
2022-10-19T22:49:20.104Z,8.13
2022-10-19T22:52:22.240Z,10.82
2022-10-19T22:55:24.738Z,11.32
2022-10-19T22:58:26.912Z,10.57
2022-10-19T23:01:29.206Z,10.00
2022-10-19T23:04:31.485Z,11.50
2022-10-19T23:07:34.106Z,9.05
2022-10-19T23:10:36.523Z,9.82
2022-10-19T23:13:38.776Z,11.77
2022-10-19T23:16:40.989Z,8.73
2022-10-19T23:19:43.264Z,13.45
2022-10-19T23:22:45.486Z,8.55
2022-10-19T23:25:58.271Z,8.45
2022-10-19T23:29:00.457Z,10.70
2022-10-19T23:32:02.611Z,10.13
2022-10-19T23:35:05.256Z,10.43
2022-10-19T23:38:07.448Z,11.05
2022-10-19T23:41:09.700Z,8.95
2022-10-19T23:44:11.981Z,11.70
2022-10-19T23:47:14.138Z,11.43
2022-10-19T23:50:16.564Z,13.82
2022-10-19T23:53:18.715Z,12.65
2022-10-19T23:56:25.186Z,11.27
2022-10-19T23:59:27.363Z,13.87
